N926 EETN-EVRA
Flight info
| Callsign | N926 |
|---|---|
| Flight time | 0h 57m |
| Altitude | 16000 |
| Route | DCT |
| Aircraft | PC12/L-VGDW/C |
Departure
| Time | 2026-04-28 15:45 |
|---|---|
| Airport | Lennart Meri Tallinn Airport (EETN) |
Arrival
| Time | 2026-04-28 16:42 |
|---|---|
| Airport | Riga International Airport (EVRA) |
| Time | Latitude | Longitude | Altitude | Speed | Heading |
|---|---|---|---|---|---|
| 2026-04-28 15:39 | 59.41719 | 24.80727 | 135 ft | 0 kts | 358° |
| 2026-04-28 15:41 | 59.41729 | 24.80716 | 135 ft | 3 kts | 293° |
| 2026-04-28 15:41 | 59.41715 | 24.80682 | 135 ft | 5 kts | 186° |
| 2026-04-28 15:42 | 59.41671 | 24.80663 | 135 ft | 8 kts | 226° |
| 2026-04-28 15:42 | 59.41657 | 24.80548 | 135 ft | 9 kts | 234° |
| 2026-04-28 15:42 | 59.41589 | 24.80513 | 135 ft | 12 kts | 181° |
| 2026-04-28 15:42 | 59.41504 | 24.80491 | 135 ft | 13 kts | 197° |
| 2026-04-28 15:43 | 59.41418 | 24.80516 | 135 ft | 14 kts | 136° |
| 2026-04-28 15:43 | 59.41343 | 24.80658 | 133 ft | 16 kts | 124° |
| 2026-04-28 15:43 | 59.41331 | 24.80794 | 134 ft | 9 kts | 89° |
| 2026-04-28 15:43 | 59.41331 | 24.80803 | 134 ft | 0 kts | 89° |
| 2026-04-28 15:44 | 59.41332 | 24.81171 | 135 ft | 57 kts | 90° |
| 2026-04-28 15:44 | 59.41341 | 24.82270 | 155 ft | 96 kts | 86° |
| 2026-04-28 15:44 | 59.41353 | 24.83614 | 379 ft | 99 kts | 85° |
| 2026-04-28 15:45 | 59.41350 | 24.85005 | 641 ft | 106 kts | 90° |
| 2026-04-28 15:45 | 59.41284 | 24.86498 | 878 ft | 117 kts | 91° |
| 2026-04-28 15:45 | 59.41221 | 24.88174 | 1126 ft | 129 kts | 91° |
| 2026-04-28 15:45 | 59.40884 | 24.89898 | 1372 ft | 146 kts | 128° |
| 2026-04-28 15:46 | 59.39929 | 24.90599 | 1621 ft | 155 kts | 186° |
| 2026-04-28 15:46 | 59.38874 | 24.90074 | 1874 ft | 159 kts | 197° |
| 2026-04-28 15:46 | 59.37816 | 24.89269 | 2126 ft | 168 kts | 216° |
| 2026-04-28 15:46 | 59.36979 | 24.87629 | 2384 ft | 174 kts | 231° |
| 2026-04-28 15:47 | 59.36125 | 24.85847 | 2636 ft | 185 kts | 231° |
| 2026-04-28 15:47 | 59.35199 | 24.84052 | 2881 ft | 195 kts | 230° |
| 2026-04-28 15:47 | 59.34204 | 24.82144 | 3132 ft | 205 kts | 230° |
| 2026-04-28 15:47 | 59.33176 | 24.80130 | 3383 ft | 212 kts | 230° |
| 2026-04-28 15:48 | 59.32124 | 24.78055 | 3633 ft | 217 kts | 230° |
| 2026-04-28 15:48 | 59.31065 | 24.75961 | 3946 ft | 216 kts | 230° |
| 2026-04-28 15:48 | 59.30010 | 24.73884 | 4276 ft | 216 kts | 230° |
| 2026-04-28 15:48 | 59.28951 | 24.71807 | 4597 ft | 214 kts | 230° |
| 2026-04-28 15:49 | 59.27896 | 24.69738 | 4926 ft | 215 kts | 230° |
| 2026-04-28 15:49 | 59.26841 | 24.67670 | 5248 ft | 215 kts | 230° |
| 2026-04-28 15:49 | 59.25799 | 24.65630 | 5566 ft | 215 kts | 230° |
| 2026-04-28 15:49 | 59.24741 | 24.63566 | 5890 ft | 215 kts | 230° |
| 2026-04-28 15:50 | 59.23684 | 24.61509 | 6217 ft | 214 kts | 230° |
| 2026-04-28 15:50 | 59.22628 | 24.59453 | 6544 ft | 215 kts | 230° |
| 2026-04-28 15:50 | 59.21568 | 24.57389 | 6879 ft | 215 kts | 230° |
| 2026-04-28 15:50 | 59.20516 | 24.55343 | 7255 ft | 212 kts | 230° |
| 2026-04-28 15:51 | 59.19474 | 24.53327 | 7626 ft | 211 kts | 229° |
| 2026-04-28 15:51 | 59.18433 | 24.51307 | 8001 ft | 212 kts | 230° |
| 2026-04-28 15:51 | 59.17385 | 24.49268 | 8379 ft | 214 kts | 230° |
| 2026-04-28 15:51 | 59.16344 | 24.47239 | 8752 ft | 215 kts | 230° |
| 2026-04-28 15:52 | 59.15282 | 24.45171 | 9122 ft | 216 kts | 230° |
| 2026-04-28 15:52 | 59.14215 | 24.43094 | 9496 ft | 218 kts | 229° |
| 2026-04-28 15:52 | 59.13149 | 24.40999 | 9866 ft | 218 kts | 230° |
| 2026-04-28 15:52 | 59.12085 | 24.38897 | 10245 ft | 218 kts | 230° |
| 2026-04-28 15:53 | 59.11024 | 24.36797 | 10620 ft | 218 kts | 229° |
| 2026-04-28 15:53 | 59.09963 | 24.34686 | 10994 ft | 218 kts | 230° |
| 2026-04-28 15:53 | 59.08902 | 24.32569 | 11369 ft | 219 kts | 229° |
| 2026-04-28 15:53 | 59.07854 | 24.30467 | 11738 ft | 219 kts | 230° |
| 2026-04-28 15:54 | 59.06791 | 24.28328 | 12113 ft | 220 kts | 229° |
| 2026-04-28 15:54 | 59.05729 | 24.26179 | 12488 ft | 220 kts | 230° |
| 2026-04-28 15:54 | 59.04667 | 24.24026 | 12862 ft | 221 kts | 230° |
| 2026-04-28 15:54 | 59.03606 | 24.21867 | 13238 ft | 221 kts | 230° |
| 2026-04-28 15:55 | 59.02339 | 24.20246 | 13607 ft | 222 kts | 195° |
| 2026-04-28 15:55 | 59.00826 | 24.19881 | 14061 ft | 217 kts | 183° |
| 2026-04-28 15:55 | 58.99343 | 24.19733 | 14504 ft | 215 kts | 182° |
| 2026-04-28 15:55 | 58.97852 | 24.19597 | 14951 ft | 214 kts | 182° |
| 2026-04-28 15:56 | 58.96370 | 24.19465 | 15396 ft | 212 kts | 182° |
| 2026-04-28 15:56 | 58.94900 | 24.19337 | 15847 ft | 211 kts | 182° |
| 2026-04-28 15:56 | 58.93404 | 24.19210 | 16035 ft | 224 kts | 182° |
| 2026-04-28 15:56 | 58.91792 | 24.19100 | 16042 ft | 239 kts | 181° |
| 2026-04-28 15:57 | 58.90089 | 24.19004 | 16043 ft | 250 kts | 181° |
| 2026-04-28 15:57 | 58.88328 | 24.18906 | 16046 ft | 256 kts | 181° |
| 2026-04-28 15:57 | 58.86556 | 24.18808 | 16047 ft | 260 kts | 181° |
| 2026-04-28 15:57 | 58.84736 | 24.18709 | 16049 ft | 263 kts | 181° |
| 2026-04-28 15:58 | 58.82900 | 24.18611 | 16048 ft | 265 kts | 181° |
| 2026-04-28 15:58 | 58.81053 | 24.18516 | 16050 ft | 266 kts | 181° |
| 2026-04-28 15:58 | 58.79197 | 24.18427 | 16047 ft | 267 kts | 181° |
| 2026-04-28 15:58 | 58.77334 | 24.18340 | 16047 ft | 268 kts | 181° |
| 2026-04-28 15:59 | 58.75466 | 24.18277 | 16041 ft | 269 kts | 181° |
| 2026-04-28 15:59 | 58.73597 | 24.18251 | 16039 ft | 269 kts | 180° |
| 2026-04-28 15:59 | 58.71753 | 24.18235 | 16041 ft | 269 kts | 180° |
| 2026-04-28 15:59 | 58.69881 | 24.18221 | 16041 ft | 269 kts | 180° |
| 2026-04-28 16:00 | 58.68010 | 24.18209 | 16041 ft | 269 kts | 180° |
| 2026-04-28 16:00 | 58.66143 | 24.18198 | 16042 ft | 269 kts | 180° |
| 2026-04-28 16:00 | 58.64272 | 24.18188 | 16040 ft | 268 kts | 180° |
| 2026-04-28 16:00 | 58.62405 | 24.18181 | 16042 ft | 268 kts | 180° |
| 2026-04-28 16:01 | 58.60540 | 24.18176 | 16043 ft | 268 kts | 180° |
| 2026-04-28 16:01 | 58.58672 | 24.18172 | 16044 ft | 268 kts | 180° |
| 2026-04-28 16:01 | 58.56831 | 24.18169 | 16040 ft | 268 kts | 180° |
| 2026-04-28 16:01 | 58.54963 | 24.18167 | 16043 ft | 268 kts | 180° |
| 2026-04-28 16:02 | 58.53098 | 24.18170 | 16041 ft | 268 kts | 180° |
| 2026-04-28 16:02 | 58.51233 | 24.18175 | 16040 ft | 268 kts | 180° |
| 2026-04-28 16:02 | 58.49371 | 24.18180 | 16040 ft | 268 kts | 180° |
| 2026-04-28 16:02 | 58.47512 | 24.18155 | 16043 ft | 267 kts | 183° |
| 2026-04-28 16:03 | 58.45688 | 24.17663 | 16036 ft | 265 kts | 194° |
| 2026-04-28 16:03 | 58.43910 | 24.16735 | 16037 ft | 265 kts | 198° |
| 2026-04-28 16:03 | 58.42162 | 24.15739 | 16041 ft | 266 kts | 198° |
| 2026-04-28 16:03 | 58.40390 | 24.14719 | 16038 ft | 266 kts | 198° |
| 2026-04-28 16:04 | 58.38621 | 24.13700 | 16082 ft | 264 kts | 198° |
| 2026-04-28 16:04 | 58.36872 | 24.12695 | 16174 ft | 261 kts | 198° |
| 2026-04-28 16:04 | 58.35125 | 24.11695 | 16179 ft | 263 kts | 198° |
| 2026-04-28 16:04 | 58.33369 | 24.10691 | 16180 ft | 264 kts | 198° |
| 2026-04-28 16:05 | 58.31609 | 24.09687 | 16180 ft | 265 kts | 198° |
| 2026-04-28 16:05 | 58.29867 | 24.08695 | 16180 ft | 265 kts | 198° |
| 2026-04-28 16:05 | 58.28098 | 24.07688 | 16176 ft | 266 kts | 198° |
| 2026-04-28 16:05 | 58.26327 | 24.06679 | 16180 ft | 266 kts | 198° |
| 2026-04-28 16:06 | 58.24553 | 24.05671 | 16180 ft | 266 kts | 198° |
| 2026-04-28 16:06 | 58.22781 | 24.04663 | 16180 ft | 266 kts | 198° |
| 2026-04-28 16:06 | 58.21008 | 24.03657 | 16180 ft | 266 kts | 198° |
| 2026-04-28 16:06 | 58.19235 | 24.02654 | 16180 ft | 266 kts | 198° |
| 2026-04-28 16:07 | 58.17486 | 24.01666 | 16182 ft | 266 kts | 198° |
| 2026-04-28 16:07 | 58.15711 | 24.00666 | 16180 ft | 266 kts | 198° |
| 2026-04-28 16:07 | 58.12163 | 23.98668 | 16181 ft | 266 kts | 198° |
| 2026-04-28 16:08 | 58.10386 | 23.97669 | 16180 ft | 266 kts | 198° |
| 2026-04-28 16:08 | 58.08614 | 23.96674 | 16180 ft | 266 kts | 198° |
| 2026-04-28 16:08 | 58.06839 | 23.95677 | 16182 ft | 266 kts | 198° |
| 2026-04-28 16:09 | 58.03320 | 23.93708 | 16197 ft | 265 kts | 198° |
| 2026-04-28 16:09 | 58.01549 | 23.92720 | 16197 ft | 265 kts | 198° |
| 2026-04-28 16:09 | 57.99777 | 23.91732 | 16197 ft | 265 kts | 198° |
| 2026-04-28 16:10 | 57.96235 | 23.89761 | 16197 ft | 266 kts | 198° |
| 2026-04-28 16:10 | 57.94464 | 23.88776 | 16197 ft | 266 kts | 198° |
| 2026-04-28 16:10 | 57.90917 | 23.86810 | 16197 ft | 266 kts | 198° |
| 2026-04-28 16:11 | 57.87396 | 23.84860 | 16197 ft | 265 kts | 198° |
| 2026-04-28 16:11 | 57.83858 | 23.82893 | 16203 ft | 265 kts | 199° |
| 2026-04-28 16:12 | 57.80348 | 23.80748 | 16204 ft | 265 kts | 200° |
| 2026-04-28 16:12 | 57.78594 | 23.79663 | 16203 ft | 265 kts | 200° |
| 2026-04-28 16:13 | 57.75085 | 23.77486 | 16204 ft | 266 kts | 200° |
| 2026-04-28 16:13 | 57.73354 | 23.76371 | 16128 ft | 268 kts | 201° |
| 2026-04-28 16:13 | 57.69754 | 23.74024 | 15685 ft | 278 kts | 201° |
| 2026-04-28 16:14 | 57.66080 | 23.71612 | 15232 ft | 281 kts | 201° |
| 2026-04-28 16:14 | 57.62384 | 23.69191 | 14781 ft | 282 kts | 201° |
| 2026-04-28 16:15 | 57.58708 | 23.66789 | 14334 ft | 281 kts | 201° |
| 2026-04-28 16:15 | 57.56867 | 23.65594 | 14108 ft | 279 kts | 201° |
| 2026-04-28 16:15 | 57.55035 | 23.64413 | 13885 ft | 278 kts | 201° |
| 2026-04-28 16:16 | 57.51385 | 23.62066 | 13432 ft | 277 kts | 201° |
| 2026-04-28 16:16 | 57.49565 | 23.60889 | 13213 ft | 277 kts | 201° |
| 2026-04-28 16:17 | 57.45931 | 23.58566 | 12753 ft | 275 kts | 200° |
| 2026-04-28 16:17 | 57.44151 | 23.57436 | 12533 ft | 273 kts | 200° |
| 2026-04-28 16:17 | 57.42353 | 23.56294 | 12305 ft | 273 kts | 201° |
| 2026-04-28 16:17 | 57.40560 | 23.55152 | 12082 ft | 272 kts | 201° |
| 2026-04-28 16:18 | 57.38770 | 23.54011 | 11857 ft | 272 kts | 201° |
| 2026-04-28 16:18 | 57.36982 | 23.52875 | 11634 ft | 271 kts | 201° |
| 2026-04-28 16:18 | 57.35198 | 23.51742 | 11406 ft | 271 kts | 201° |
| 2026-04-28 16:18 | 57.33416 | 23.50614 | 11181 ft | 270 kts | 201° |
| 2026-04-28 16:19 | 57.31660 | 23.49505 | 10959 ft | 270 kts | 201° |
| 2026-04-28 16:19 | 57.29884 | 23.48388 | 10736 ft | 270 kts | 201° |
| 2026-04-28 16:19 | 57.28107 | 23.47279 | 10508 ft | 269 kts | 201° |
| 2026-04-28 16:19 | 57.26334 | 23.46178 | 10283 ft | 269 kts | 201° |
| 2026-04-28 16:20 | 57.24562 | 23.45076 | 10057 ft | 268 kts | 201° |
| 2026-04-28 16:20 | 57.22815 | 23.43994 | 9831 ft | 262 kts | 201° |
| 2026-04-28 16:20 | 57.21096 | 23.42936 | 9605 ft | 258 kts | 201° |
| 2026-04-28 16:20 | 57.19443 | 23.41864 | 9385 ft | 252 kts | 202° |
| 2026-04-28 16:21 | 57.17822 | 23.40777 | 9155 ft | 245 kts | 202° |
| 2026-04-28 16:21 | 57.16237 | 23.39715 | 8929 ft | 241 kts | 202° |
| 2026-04-28 16:21 | 57.14676 | 23.38672 | 8703 ft | 237 kts | 202° |
| 2026-04-28 16:21 | 57.13135 | 23.37647 | 8474 ft | 234 kts | 202° |
| 2026-04-28 16:22 | 57.11627 | 23.36646 | 8251 ft | 228 kts | 202° |
| 2026-04-28 16:22 | 57.10157 | 23.35681 | 8026 ft | 223 kts | 202° |
| 2026-04-28 16:22 | 57.08721 | 23.34750 | 7801 ft | 219 kts | 202° |
| 2026-04-28 16:22 | 57.07290 | 23.33827 | 7575 ft | 217 kts | 202° |
| 2026-04-28 16:23 | 57.05873 | 23.32916 | 7349 ft | 215 kts | 202° |
| 2026-04-28 16:23 | 57.04465 | 23.32020 | 7124 ft | 214 kts | 202° |
| 2026-04-28 16:23 | 57.03064 | 23.31134 | 6899 ft | 213 kts | 202° |
| 2026-04-28 16:23 | 57.01664 | 23.30253 | 6673 ft | 213 kts | 203° |
| 2026-04-28 16:24 | 57.00266 | 23.29381 | 6449 ft | 212 kts | 202° |
| 2026-04-28 16:24 | 56.98870 | 23.28518 | 6223 ft | 211 kts | 202° |
| 2026-04-28 16:24 | 56.97476 | 23.27662 | 5998 ft | 211 kts | 202° |
| 2026-04-28 16:24 | 56.96102 | 23.26820 | 5776 ft | 210 kts | 202° |
| 2026-04-28 16:25 | 56.94717 | 23.26670 | 5542 ft | 198 kts | 163° |
| 2026-04-28 16:25 | 56.93642 | 23.28022 | 5343 ft | 181 kts | 130° |
| 2026-04-28 16:25 | 56.92790 | 23.29658 | 5163 ft | 175 kts | 129° |
| 2026-04-28 16:25 | 56.91955 | 23.31270 | 4986 ft | 174 kts | 129° |
| 2026-04-28 16:26 | 56.91137 | 23.32842 | 4823 ft | 167 kts | 129° |
| 2026-04-28 16:26 | 56.90367 | 23.34386 | 4649 ft | 161 kts | 122° |
| 2026-04-28 16:26 | 56.89724 | 23.35990 | 4569 ft | 153 kts | 120° |
| 2026-04-28 16:26 | 56.89115 | 23.37511 | 4490 ft | 148 kts | 120° |
| 2026-04-28 16:27 | 56.88509 | 23.39022 | 4415 ft | 147 kts | 120° |
| 2026-04-28 16:27 | 56.87903 | 23.40525 | 4336 ft | 147 kts | 120° |
| 2026-04-28 16:27 | 56.86691 | 23.43518 | 4189 ft | 146 kts | 120° |
| 2026-04-28 16:28 | 56.86087 | 23.45010 | 4112 ft | 146 kts | 120° |
| 2026-04-28 16:28 | 56.85686 | 23.46001 | 4064 ft | 146 kts | 120° |
| 2026-04-28 16:28 | 56.84879 | 23.47999 | 3964 ft | 146 kts | 120° |
| 2026-04-28 16:28 | 56.84277 | 23.49495 | 3889 ft | 146 kts | 120° |
| 2026-04-28 16:29 | 56.83137 | 23.52318 | 3746 ft | 145 kts | 120° |
| 2026-04-28 16:29 | 56.81934 | 23.55291 | 3596 ft | 146 kts | 120° |
| 2026-04-28 16:30 | 56.81334 | 23.56776 | 3521 ft | 145 kts | 120° |
| 2026-04-28 16:30 | 56.80733 | 23.58264 | 3451 ft | 146 kts | 120° |
| 2026-04-28 16:30 | 56.80132 | 23.59761 | 3372 ft | 146 kts | 121° |
| 2026-04-28 16:30 | 56.79538 | 23.61238 | 3296 ft | 146 kts | 120° |
| 2026-04-28 16:31 | 56.78933 | 23.62734 | 3219 ft | 147 kts | 121° |
| 2026-04-28 16:31 | 56.78322 | 23.64248 | 3150 ft | 149 kts | 120° |
| 2026-04-28 16:31 | 56.77789 | 23.65840 | 3073 ft | 146 kts | 111° |
| 2026-04-28 16:31 | 56.77300 | 23.67465 | 2997 ft | 146 kts | 111° |
| 2026-04-28 16:32 | 56.76811 | 23.69090 | 2924 ft | 146 kts | 111° |
| 2026-04-28 16:32 | 56.75900 | 23.72355 | 2774 ft | 142 kts | 101° |
| 2026-04-28 16:32 | 56.75616 | 23.74067 | 2700 ft | 141 kts | 98° |
| 2026-04-28 16:33 | 56.75336 | 23.75773 | 2622 ft | 140 kts | 98° |
| 2026-04-28 16:33 | 56.75153 | 23.76899 | 2572 ft | 140 kts | 98° |
| 2026-04-28 16:33 | 56.74794 | 23.79178 | 2499 ft | 141 kts | 98° |
| 2026-04-28 16:33 | 56.74522 | 23.80926 | 2498 ft | 145 kts | 98° |
| 2026-04-28 16:34 | 56.74248 | 23.82699 | 2498 ft | 145 kts | 98° |
| 2026-04-28 16:34 | 56.74023 | 23.84481 | 2497 ft | 143 kts | 89° |
| 2026-04-28 16:34 | 56.73910 | 23.86253 | 2499 ft | 144 kts | 89° |
| 2026-04-28 16:34 | 56.73798 | 23.88064 | 2497 ft | 144 kts | 89° |
| 2026-04-28 16:35 | 56.73684 | 23.89869 | 2499 ft | 143 kts | 89° |
| 2026-04-28 16:35 | 56.73567 | 23.91680 | 2497 ft | 144 kts | 89° |
| 2026-04-28 16:35 | 56.73478 | 23.93470 | 2491 ft | 137 kts | 75° |
| 2026-04-28 16:35 | 56.73965 | 23.94693 | 2487 ft | 115 kts | 13° |
| 2026-04-28 16:36 | 56.74752 | 23.94955 | 2382 ft | 118 kts | 0° |
| 2026-04-28 16:36 | 56.75591 | 23.95050 | 2260 ft | 124 kts | 359° |
| 2026-04-28 16:36 | 56.76459 | 23.95123 | 2139 ft | 129 kts | 359° |
| 2026-04-28 16:36 | 56.77367 | 23.95192 | 2014 ft | 131 kts | 359° |
| 2026-04-28 16:37 | 56.78253 | 23.95262 | 1996 ft | 121 kts | 359° |
| 2026-04-28 16:37 | 56.79048 | 23.95295 | 1989 ft | 109 kts | 354° |
| 2026-04-28 16:37 | 56.79793 | 23.95228 | 1987 ft | 106 kts | 353° |
| 2026-04-28 16:38 | 56.81171 | 23.95177 | 1926 ft | 93 kts | 358° |
| 2026-04-28 16:38 | 56.81829 | 23.95276 | 1789 ft | 96 kts | 1° |
| 2026-04-28 16:38 | 56.82500 | 23.95428 | 1642 ft | 99 kts | 3° |
| 2026-04-28 16:38 | 56.83178 | 23.95595 | 1457 ft | 100 kts | 3° |
| 2026-04-28 16:39 | 56.83878 | 23.95751 | 1261 ft | 103 kts | 2° |
| 2026-04-28 16:39 | 56.84593 | 23.95846 | 1062 ft | 102 kts | 0° |
| 2026-04-28 16:39 | 56.85287 | 23.95946 | 949 ft | 98 kts | 1° |
| 2026-04-28 16:39 | 56.85949 | 23.96050 | 877 ft | 94 kts | 2° |
| 2026-04-28 16:40 | 56.86591 | 23.96190 | 798 ft | 92 kts | 3° |
| 2026-04-28 16:40 | 56.87223 | 23.96322 | 712 ft | 91 kts | 2° |
| 2026-04-28 16:40 | 56.87863 | 23.96398 | 603 ft | 93 kts | 359° |
| 2026-04-28 16:40 | 56.88462 | 23.96461 | 540 ft | 86 kts | 0° |
| 2026-04-28 16:41 | 56.89053 | 23.96569 | 391 ft | 85 kts | 3° |
| 2026-04-28 16:41 | 56.89634 | 23.96674 | 261 ft | 83 kts | 2° |
| 2026-04-28 16:41 | 56.90197 | 23.96748 | 170 ft | 81 kts | 1° |
| 2026-04-28 16:41 | 56.90760 | 23.96847 | 74 ft | 81 kts | 2° |
| 2026-04-28 16:42 | 56.91305 | 23.96934 | 52 ft | 76 kts | 2° |
| 2026-04-28 16:42 | 56.91779 | 23.96988 | 39 ft | 38 kts | 37° |
| 2026-04-28 16:42 | 56.91969 | 23.97048 | 39 ft | 28 kts | 4° |
| 2026-04-28 16:42 | 56.92164 | 23.97079 | 41 ft | 29 kts | 5° |
| 2026-04-28 16:43 | 56.92362 | 23.97140 | 40 ft | 29 kts | 22° |
| 2026-04-28 16:43 | 56.92510 | 23.97307 | 39 ft | 21 kts | 35° |
| 2026-04-28 16:43 | 56.92583 | 23.97404 | 39 ft | 0 kts | 36° |
| 2026-04-28 16:44 | 56.92593 | 23.97417 | 39 ft | 5 kts | 36° |
| 2026-04-28 16:44 | 56.92617 | 23.97481 | 39 ft | 5 kts | 89° |
| 2026-04-28 16:44 | 56.92602 | 23.97541 | 39 ft | 6 kts | 150° |
| 2026-04-28 16:45 | 56.92578 | 23.97546 | 39 ft | 0 kts | 193° |
| 2026-04-28 16:45 | 56.92565 | 23.97548 | 39 ft | 5 kts | 158° |
| 2026-04-28 16:46 | 56.92545 | 23.97633 | 39 ft | 8 kts | 99° |
| 2026-04-28 16:46 | 56.92545 | 23.97664 | 39 ft | 6 kts | 90° |
| 2026-04-28 16:46 | 56.92571 | 23.97741 | 39 ft | 9 kts | 36° |
| 2026-04-28 16:46 | 56.92619 | 23.97772 | 39 ft | 6 kts | 326° |
| 2026-04-28 16:47 | 56.92628 | 23.97758 | 39 ft | 0 kts | 321° |